createdAt,value
2023-04-18T00:00:39.890Z,0.00
2023-04-18T00:01:39.881Z,0.00
2023-04-18T00:02:40.140Z,0.00
2023-04-18T00:03:40.118Z,0.00
2023-04-18T00:04:39.893Z,0.00
2023-04-18T00:05:39.823Z,0.00
2023-04-18T00:06:39.814Z,0.00
2023-04-18T00:07:39.802Z,0.00
2023-04-18T00:08:39.787Z,0.00
2023-04-18T00:09:39.796Z,0.00
2023-04-18T00:10:39.808Z,0.00
2023-04-18T00:11:39.759Z,0.00
2023-04-18T00:12:39.747Z,0.00
2023-04-18T00:13:39.735Z,0.00
2023-04-18T00:14:39.719Z,0.00
2023-04-18T00:15:39.714Z,0.00
2023-04-18T00:16:39.744Z,0.00
2023-04-18T00:17:39.767Z,0.00
2023-04-18T00:18:39.674Z,0.00
2023-04-18T00:19:39.668Z,0.00
2023-04-18T00:20:39.676Z,0.00
2023-04-18T00:21:39.644Z,0.00
2023-04-18T00:22:39.637Z,0.00
2023-04-18T00:23:39.636Z,0.00
2023-04-18T00:24:39.621Z,0.00
2023-04-18T00:25:39.612Z,0.00
2023-04-18T00:26:39.635Z,0.00
2023-04-18T00:27:39.580Z,0.00
2023-04-18T00:28:39.569Z,0.00
2023-04-18T00:29:39.579Z,0.00
2023-04-18T00:30:39.595Z,0.00
2023-04-18T00:31:39.534Z,0.00
2023-04-18T00:32:39.622Z,0.00
2023-04-18T00:33:39.554Z,0.00
2023-04-18T00:34:39.586Z,0.00
2023-04-18T00:35:39.615Z,0.00
2023-04-18T00:36:39.649Z,0.00
2023-04-18T00:37:39.593Z,0.00
2023-04-18T00:38:39.651Z,0.00
2023-04-18T00:39:39.637Z,0.00
2023-04-18T00:40:39.449Z,0.00
2023-04-18T00:41:39.427Z,0.00
2023-04-18T00:42:39.438Z,0.00
2023-04-18T00:43:39.407Z,0.00
2023-04-18T00:44:39.402Z,0.00
2023-04-18T00:45:39.382Z,0.00
2023-04-18T00:46:39.427Z,0.00
2023-04-18T00:47:39.408Z,0.00
2023-04-18T00:48:39.351Z,0.00
2023-04-18T00:49:39.338Z,0.00
2023-04-18T00:50:39.325Z,0.00
2023-04-18T00:51:39.318Z,0.00
2023-04-18T00:52:39.322Z,0.00
2023-04-18T00:53:39.299Z,0.00
2023-04-18T00:54:39.288Z,0.00
2023-04-18T00:55:39.271Z,0.00
2023-04-18T00:56:39.261Z,0.00
2023-04-18T00:57:39.249Z,0.00
2023-04-18T00:58:39.264Z,0.00
2023-04-18T00:59:39.233Z,0.00
2023-04-18T01:00:39.217Z,0.00
2023-04-18T01:01:39.307Z,0.00
2023-04-18T01:02:39.368Z,0.00
2023-04-18T01:03:39.323Z,0.00
2023-04-18T01:04:39.216Z,0.00
2023-04-18T01:05:39.162Z,0.00
2023-04-18T01:06:39.155Z,0.00
2023-04-18T01:07:39.141Z,0.00
2023-04-18T01:08:39.161Z,0.00
2023-04-18T01:09:39.123Z,0.00
2023-04-18T01:10:39.115Z,0.00
2023-04-18T01:11:39.108Z,0.00
2023-04-18T01:12:39.079Z,0.00
2023-04-18T01:13:39.078Z,0.00
2023-04-18T01:14:39.112Z,0.00
2023-04-18T01:15:39.176Z,0.00
2023-04-18T01:16:39.041Z,0.00
2023-04-18T01:17:39.067Z,0.00
2023-04-18T01:18:39.020Z,0.00
2023-04-18T01:19:39.012Z,0.00
2023-04-18T01:20:38.993Z,0.00
2023-04-18T01:21:38.985Z,0.00
2023-04-18T01:22:38.979Z,0.00
2023-04-18T01:23:38.970Z,0.00
2023-04-18T01:24:38.956Z,0.00
2023-04-18T01:25:38.943Z,0.00
2023-04-18T01:26:38.930Z,0.00
2023-04-18T01:27:38.925Z,0.00
2023-04-18T01:28:38.910Z,0.00
2023-04-18T01:29:39.108Z,0.00
2023-04-18T01:30:38.911Z,0.00
2023-04-18T01:31:39.121Z,0.00
2023-04-18T01:32:38.946Z,0.00
2023-04-18T01:33:38.856Z,0.00
2023-04-18T01:34:38.848Z,0.00
2023-04-18T01:35:38.833Z,0.00
2023-04-18T01:36:38.834Z,0.00
2023-04-18T01:37:38.809Z,0.00
2023-04-18T01:38:38.799Z,0.00
2023-04-18T01:39:38.787Z,0.00
2023-04-18T01:40:38.778Z,0.00
2023-04-18T01:41:38.766Z,0.00
2023-04-18T01:42:38.753Z,0.00
2023-04-18T01:43:38.747Z,0.00
2023-04-18T01:44:38.736Z,0.00
2023-04-18T01:45:38.732Z,0.00
2023-04-18T01:46:38.818Z,0.00
2023-04-18T01:47:38.774Z,0.00
2023-04-18T01:48:38.692Z,0.00
2023-04-18T01:49:38.679Z,0.00
2023-04-18T01:50:38.665Z,0.00
2023-04-18T01:51:38.657Z,0.00
2023-04-18T01:52:38.643Z,0.00
2023-04-18T01:53:38.643Z,0.00
2023-04-18T01:54:38.628Z,0.00
2023-04-18T01:55:38.612Z,0.00
2023-04-18T01:56:38.608Z,0.00
2023-04-18T01:57:38.595Z,0.00
2023-04-18T01:58:38.581Z,0.00
2023-04-18T01:59:38.574Z,0.00
2023-04-18T02:00:38.620Z,0.00
2023-04-18T02:01:38.584Z,0.00
2023-04-18T02:02:38.751Z,0.00
2023-04-18T02:03:38.825Z,0.00
2023-04-18T02:04:38.537Z,0.00
2023-04-18T02:05:38.543Z,0.00
2023-04-18T02:06:38.526Z,0.00
2023-04-18T02:07:38.514Z,0.00
2023-04-18T02:08:38.472Z,0.00
2023-04-18T02:09:38.482Z,0.00
2023-04-18T02:10:38.456Z,0.00
2023-04-18T02:11:38.445Z,0.00
2023-04-18T02:12:38.450Z,0.00
2023-04-18T02:13:38.427Z,0.00
2023-04-18T02:14:38.407Z,0.00
2023-04-18T02:15:38.397Z,0.00
2023-04-18T02:16:38.397Z,0.00
2023-04-18T02:17:38.418Z,0.00
2023-04-18T02:18:38.380Z,0.00
2023-04-18T02:19:38.363Z,0.00
2023-04-18T02:20:38.342Z,0.00
2023-04-18T02:21:38.331Z,0.00
2023-04-18T02:22:38.316Z,0.00
2023-04-18T02:23:38.309Z,0.00
2023-04-18T02:24:38.295Z,0.00
2023-04-18T02:25:38.289Z,0.00
2023-04-18T02:26:38.272Z,0.00
2023-04-18T02:27:38.260Z,0.00
2023-04-18T02:28:38.248Z,0.00
2023-04-18T02:29:38.253Z,0.00
2023-04-18T02:30:38.228Z,0.00
2023-04-18T02:31:38.240Z,0.00
2023-04-18T02:32:38.256Z,0.00
2023-04-18T02:33:38.197Z,0.00
2023-04-18T02:34:38.325Z,0.00
2023-04-18T02:35:38.176Z,0.00
2023-04-18T02:36:38.161Z,0.00
2023-04-18T02:37:38.151Z,0.00
2023-04-18T02:38:38.141Z,0.00
2023-04-18T02:39:38.129Z,0.00
2023-04-18T02:40:38.140Z,0.00
2023-04-18T02:41:38.109Z,0.00
2023-04-18T02:42:38.091Z,0.00
2023-04-18T02:43:38.083Z,0.00
2023-04-18T02:44:38.078Z,0.00
2023-04-18T02:45:38.099Z,0.00
2023-04-18T02:46:38.055Z,0.00
2023-04-18T02:47:47.385Z,0.00
2023-04-18T02:48:39.061Z,0.00
2023-04-18T02:49:38.029Z,0.00
2023-04-18T02:50:38.062Z,0.00
2023-04-18T02:51:38.006Z,0.00
2023-04-18T02:52:37.984Z,0.00
2023-04-18T02:53:37.970Z,0.00
2023-04-18T02:54:37.981Z,0.00
2023-04-18T02:55:37.962Z,0.00
2023-04-18T02:56:37.945Z,0.00
2023-04-18T02:57:37.927Z,0.00
2023-04-18T02:58:37.924Z,0.00
2023-04-18T02:59:37.906Z,0.00
2023-04-18T03:00:37.898Z,0.00
2023-04-18T03:01:37.962Z,0.00
2023-04-18T03:02:37.939Z,0.00
2023-04-18T03:03:37.862Z,0.00
2023-04-18T03:04:37.884Z,0.00
2023-04-18T03:05:37.840Z,0.00
2023-04-18T03:06:37.858Z,0.00
2023-04-18T03:07:37.820Z,0.00
2023-04-18T03:08:37.805Z,0.00
2023-04-18T03:09:37.798Z,0.00
2023-04-18T03:10:37.792Z,0.00
2023-04-18T03:11:37.776Z,0.00
2023-04-18T03:12:37.770Z,0.00
2023-04-18T03:13:37.763Z,0.00
2023-04-18T03:14:37.745Z,0.00
2023-04-18T03:15:37.767Z,0.00
2023-04-18T03:16:37.724Z,0.00
2023-04-18T03:17:37.736Z,0.00
2023-04-18T03:18:37.706Z,0.00
2023-04-18T03:19:37.702Z,0.00
2023-04-18T03:20:37.692Z,0.00
2023-04-18T03:21:37.673Z,0.00
2023-04-18T03:22:37.680Z,0.00
2023-04-18T03:23:37.646Z,0.00
2023-04-18T03:24:37.653Z,0.00
2023-04-18T03:25:37.623Z,0.00
2023-04-18T03:26:37.616Z,0.00
2023-04-18T03:27:37.600Z,0.00
2023-04-18T03:28:37.609Z,0.00
2023-04-18T03:29:37.582Z,0.00
2023-04-18T03:30:37.567Z,0.00
2023-04-18T03:31:37.596Z,0.00
2023-04-18T03:32:37.556Z,0.00
2023-04-18T03:33:37.531Z,0.00
2023-04-18T03:34:37.522Z,0.00
2023-04-18T03:35:37.509Z,0.00
2023-04-18T03:36:37.502Z,0.00
2023-04-18T03:37:37.488Z,0.00
2023-04-18T03:38:37.508Z,0.00
2023-04-18T03:39:37.468Z,0.00
2023-04-18T03:40:37.463Z,0.00
2023-04-18T03:41:37.446Z,0.00
2023-04-18T03:42:37.456Z,0.00
2023-04-18T03:43:37.424Z,0.00
2023-04-18T03:44:37.412Z,4.00
2023-04-18T03:45:37.399Z,0.00
2023-04-18T03:46:37.431Z,0.00
2023-04-18T03:47:37.404Z,0.00
2023-04-18T03:48:37.542Z,4.00
2023-04-18T03:49:37.362Z,0.00
2023-04-18T03:50:37.349Z,4.00
2023-04-18T03:51:37.333Z,0.00
2023-04-18T03:52:37.333Z,4.00
2023-04-18T03:53:37.309Z,4.00
2023-04-18T03:54:37.332Z,4.00
2023-04-18T03:55:37.291Z,8.00
2023-04-18T03:56:37.330Z,8.00
2023-04-18T03:57:37.278Z,12.00
2023-04-18T03:58:37.262Z,8.00
2023-04-18T03:59:37.257Z,12.00
2023-04-18T04:00:37.340Z,12.00
2023-04-18T04:01:37.298Z,16.00
2023-04-18T04:02:37.428Z,20.00
2023-04-18T04:03:37.537Z,24.00
2023-04-18T04:04:37.241Z,28.00
2023-04-18T04:05:37.199Z,32.00
2023-04-18T04:06:37.182Z,36.00
2023-04-18T04:07:37.171Z,48.00
2023-04-18T04:08:37.153Z,52.00
2023-04-18T04:09:37.145Z,60.00
2023-04-18T04:10:37.157Z,68.00
2023-04-18T04:11:37.126Z,76.00
2023-04-18T04:12:37.113Z,88.00
2023-04-18T04:13:37.107Z,100.00
2023-04-18T04:14:37.092Z,112.00
2023-04-18T04:15:37.088Z,132.00
2023-04-18T04:16:37.198Z,148.00
2023-04-18T04:17:37.079Z,164.00
2023-04-18T04:18:37.044Z,180.00
2023-04-18T04:19:37.032Z,204.00
2023-04-18T04:20:37.025Z,220.00
2023-04-18T04:21:37.010Z,244.00
2023-04-18T04:22:37.014Z,268.00
2023-04-18T04:23:36.986Z,288.00
2023-04-18T04:24:36.984Z,316.00
2023-04-18T04:25:36.975Z,344.00
2023-04-18T04:26:36.975Z,380.00
2023-04-18T04:27:37.018Z,420.00
2023-04-18T04:28:36.945Z,456.00
2023-04-18T04:29:36.922Z,492.00
2023-04-18T04:30:36.913Z,536.00
2023-04-18T04:31:37.041Z,588.00
2023-04-18T04:32:36.899Z,640.00
2023-04-18T04:33:36.881Z,688.00
2023-04-18T04:34:36.869Z,744.00
2023-04-18T04:35:36.878Z,788.00
2023-04-18T04:36:36.853Z,828.00
2023-04-18T04:37:36.831Z,876.00
2023-04-18T04:38:36.871Z,932.00
2023-04-18T04:39:36.810Z,992.00
2023-04-18T04:40:36.800Z,1040.00
2023-04-18T04:41:36.786Z,1092.00
2023-04-18T04:42:36.901Z,1148.00
2023-04-18T04:43:36.764Z,1208.00
2023-04-18T04:44:36.805Z,1264.00
2023-04-18T04:45:36.790Z,1324.00
2023-04-18T04:46:36.734Z,1384.00
2023-04-18T04:47:36.795Z,1444.00
2023-04-18T04:48:36.714Z,1528.00
2023-04-18T04:49:36.728Z,1656.00
2023-04-18T04:50:36.689Z,1804.00
2023-04-18T04:51:36.677Z,1940.00
2023-04-18T04:52:36.670Z,2052.00
2023-04-18T04:53:36.649Z,2104.00
2023-04-18T04:54:36.646Z,2152.00
2023-04-18T04:55:36.632Z,2252.00
2023-04-18T04:56:36.640Z,2388.00
2023-04-18T04:57:36.613Z,2500.00
2023-04-18T04:58:36.628Z,2548.00
2023-04-18T04:59:36.593Z,2500.00
2023-04-18T05:00:36.591Z,2392.00
2023-04-18T05:01:36.665Z,2356.00
2023-04-18T05:02:36.700Z,2396.00
2023-04-18T05:03:36.876Z,2428.00
2023-04-18T05:04:36.668Z,2384.00
2023-04-18T05:05:36.533Z,2316.00
2023-04-18T05:06:37.915Z,2300.00
2023-04-18T05:07:36.500Z,2352.00
2023-04-18T05:08:36.496Z,2404.00
2023-04-18T05:09:36.503Z,2416.00
2023-04-18T05:10:36.477Z,2464.00
2023-04-18T05:11:36.459Z,2532.00
2023-04-18T05:12:36.447Z,2600.00
2023-04-18T05:13:36.433Z,2676.00
2023-04-18T05:14:36.475Z,2720.00
2023-04-18T05:15:36.415Z,2772.00
2023-04-18T05:16:36.466Z,2880.00
2023-04-18T05:17:36.444Z,3060.00
2023-04-18T05:18:36.392Z,3228.00
2023-04-18T05:19:36.372Z,3396.00
2023-04-18T05:20:36.364Z,3592.00
2023-04-18T05:21:36.346Z,3768.00
2023-04-18T05:22:36.337Z,3876.00
2023-04-18T05:23:36.323Z,3892.00
2023-04-18T05:24:36.325Z,3844.00
2023-04-18T05:25:36.302Z,3812.00
2023-04-18T05:26:36.308Z,3832.00
2023-04-18T05:27:36.308Z,3840.00
2023-04-18T05:28:36.266Z,3816.00
2023-04-18T05:29:36.259Z,3812.00
2023-04-18T05:30:36.367Z,3860.00
2023-04-18T05:31:36.368Z,3976.00
2023-04-18T05:32:36.308Z,4056.00
2023-04-18T05:33:36.222Z,4084.00
2023-04-18T05:34:38.510Z,4128.00
2023-04-18T05:35:36.197Z,4168.00
2023-04-18T05:36:36.180Z,4188.00
2023-04-18T05:37:36.173Z,4300.00
2023-04-18T05:38:36.169Z,4524.00
2023-04-18T05:39:36.156Z,4744.00
2023-04-18T05:40:36.158Z,5004.00
2023-04-18T05:41:36.129Z,5312.00
2023-04-18T05:42:36.118Z,5492.00
2023-04-18T05:43:36.113Z,5544.00
2023-04-18T05:44:36.099Z,5508.00
2023-04-18T05:45:36.100Z,5440.00
2023-04-18T05:46:36.218Z,5428.00
2023-04-18T05:47:36.153Z,5460.00
2023-04-18T05:48:36.054Z,5492.00
2023-04-18T05:49:36.047Z,5608.00
2023-04-18T05:50:36.046Z,5808.00
2023-04-18T05:51:36.027Z,6068.00
2023-04-18T05:52:36.011Z,6376.00
2023-04-18T05:53:35.995Z,6652.00
2023-04-18T05:54:36.008Z,6784.00
2023-04-18T05:55:35.988Z,6820.00
2023-04-18T05:56:35.964Z,6900.00
2023-04-18T05:57:35.952Z,7248.00
2023-04-18T05:58:35.943Z,8004.00
2023-04-18T05:59:35.982Z,9844.00
2023-04-18T06:00:35.933Z,9704.00
2023-04-18T06:01:35.909Z,11416.00
2023-04-18T06:02:36.102Z,11168.00
2023-04-18T06:03:36.164Z,11856.00
2023-04-18T06:04:36.010Z,11448.00
2023-04-18T06:05:36.080Z,12076.00
2023-04-18T06:06:35.854Z,12220.00
2023-04-18T06:07:35.848Z,11704.00
2023-04-18T06:08:35.835Z,10520.00
2023-04-18T06:09:35.823Z,10164.00
2023-04-18T06:10:37.760Z,10208.00
2023-04-18T06:11:35.800Z,9788.00
2023-04-18T06:12:35.818Z,10876.00
2023-04-18T06:13:35.780Z,11832.00
2023-04-18T06:14:35.854Z,12404.00
2023-04-18T06:15:35.765Z,12572.00
2023-04-18T06:16:35.803Z,13008.00
2023-04-18T06:17:35.803Z,13632.00
2023-04-18T06:18:35.759Z,13888.00
2023-04-18T06:19:35.873Z,14688.00
2023-04-18T06:20:35.702Z,15004.00
2023-04-18T06:21:35.686Z,15152.00
2023-04-18T06:22:35.680Z,15680.00
2023-04-18T06:23:35.670Z,16064.00
2023-04-18T06:24:35.660Z,16224.00
2023-04-18T06:25:35.655Z,15936.00
2023-04-18T06:26:35.639Z,13852.00
2023-04-18T06:27:35.622Z,14364.00
2023-04-18T06:28:35.621Z,14368.00
2023-04-18T06:29:36.221Z,15616.00
2023-04-18T06:30:35.599Z,17376.00
2023-04-18T06:31:35.682Z,17504.00
2023-04-18T06:32:35.666Z,16704.00
2023-04-18T06:33:35.555Z,16064.00
2023-04-18T06:34:35.587Z,16736.00
2023-04-18T06:35:35.544Z,17600.00
2023-04-18T06:36:35.519Z,18400.00
2023-04-18T06:37:35.512Z,18624.00
2023-04-18T06:38:35.510Z,18240.00
2023-04-18T06:39:35.487Z,19328.00
2023-04-18T06:40:35.495Z,17472.00
2023-04-18T06:41:35.465Z,16864.00
2023-04-18T06:42:35.500Z,15776.00
2023-04-18T06:43:35.444Z,15336.00
2023-04-18T06:44:35.435Z,15936.00
2023-04-18T06:45:35.581Z,16576.00
2023-04-18T06:46:35.415Z,18336.00
2023-04-18T06:47:35.445Z,20320.00
2023-04-18T06:48:35.398Z,21120.00
2023-04-18T06:49:35.387Z,22464.00
2023-04-18T06:50:35.409Z,21664.00
2023-04-18T06:51:35.374Z,21408.00
2023-04-18T06:52:35.348Z,22688.00
2023-04-18T06:53:35.373Z,22912.00
2023-04-18T06:54:35.349Z,23296.00
2023-04-18T06:55:35.320Z,22624.00
2023-04-18T06:56:36.629Z,23392.00
2023-04-18T06:57:35.298Z,24224.00
2023-04-18T06:58:35.282Z,25600.00
2023-04-18T06:59:35.269Z,25472.00
2023-04-18T07:00:35.261Z,26368.00
2023-04-18T07:01:35.373Z,26336.00
2023-04-18T07:02:35.363Z,26464.00
2023-04-18T07:03:35.310Z,26720.00
2023-04-18T07:04:35.269Z,27200.00
2023-04-18T07:05:35.213Z,27808.00
2023-04-18T07:06:35.216Z,28320.00
2023-04-18T07:07:35.189Z,28896.00
2023-04-18T07:08:35.177Z,28896.00
2023-04-18T07:09:35.171Z,29792.00
2023-04-18T07:10:35.151Z,30016.00
2023-04-18T07:11:35.138Z,30464.00
2023-04-18T07:12:35.128Z,31136.00
2023-04-18T07:13:35.118Z,31712.00
2023-04-18T07:14:35.119Z,43104.00
2023-04-18T07:15:35.125Z,46176.00
2023-04-18T07:16:35.158Z,40256.00
2023-04-18T07:17:35.116Z,36832.00
2023-04-18T07:18:38.313Z,36224.00
2023-04-18T07:19:35.047Z,35840.00
2023-04-18T07:20:35.053Z,36416.00
2023-04-18T07:21:35.040Z,36384.00
2023-04-18T07:22:35.274Z,36864.00
2023-04-18T07:23:35.027Z,36512.00
2023-04-18T07:24:34.995Z,36768.00
2023-04-18T07:25:34.993Z,36192.00
2023-04-18T07:26:34.967Z,36384.00
2023-04-18T07:27:34.961Z,36544.00
2023-04-18T07:28:34.961Z,36384.00
2023-04-18T07:29:34.936Z,35680.00
2023-04-18T07:30:34.922Z,36000.00
2023-04-18T07:31:34.955Z,35808.00
2023-04-18T07:32:35.004Z,36000.00
2023-04-18T07:33:34.894Z,36128.00
2023-04-18T07:34:34.875Z,36768.00
2023-04-18T07:35:34.882Z,36416.00
2023-04-18T07:36:34.863Z,36000.00
2023-04-18T07:37:34.856Z,36192.00
2023-04-18T07:38:34.972Z,36320.00
2023-04-18T07:39:34.849Z,36160.00
2023-04-18T07:40:34.828Z,36480.00
2023-04-18T07:41:34.803Z,37088.00
2023-04-18T07:42:34.808Z,36640.00
2023-04-18T07:43:34.797Z,37216.00
2023-04-18T07:44:34.794Z,37600.00
2023-04-18T07:45:34.804Z,37664.00
2023-04-18T07:46:34.827Z,38240.00
2023-04-18T07:47:34.844Z,38624.00
2023-04-18T07:48:34.864Z,39072.00
2023-04-18T07:49:34.846Z,38528.00
2023-04-18T07:50:34.879Z,39680.00
2023-04-18T07:51:34.867Z,39584.00
2023-04-18T07:52:34.791Z,40064.00
2023-04-18T07:53:34.702Z,40224.00
2023-04-18T07:54:34.753Z,39968.00
2023-04-18T07:55:34.658Z,40000.00
2023-04-18T07:56:34.659Z,39712.00
2023-04-18T07:57:34.644Z,40960.00
2023-04-18T07:58:34.628Z,41792.00
2023-04-18T07:59:34.615Z,43520.00
2023-04-18T08:00:34.614Z,43200.00
2023-04-18T08:01:34.594Z,43936.00
2023-04-18T08:02:34.672Z,45152.00
2023-04-18T08:03:34.618Z,45024.00
2023-04-18T08:04:34.740Z,47712.00
2023-04-18T08:05:34.750Z,48704.00
2023-04-18T08:06:34.536Z,53344.00
2023-04-18T08:07:34.527Z,50240.00
2023-04-18T08:08:34.515Z,47712.00
2023-04-18T08:09:34.505Z,46144.00
2023-04-18T08:10:34.595Z,45984.00
2023-04-18T08:11:34.514Z,45696.00
2023-04-18T08:12:34.472Z,45792.00
2023-04-18T08:13:34.462Z,46816.00
2023-04-18T08:14:34.485Z,46304.00
2023-04-18T08:15:34.443Z,46368.00
2023-04-18T08:16:34.482Z,45344.00
2023-04-18T08:17:34.449Z,48352.00
2023-04-18T08:18:34.405Z,48608.00
2023-04-18T08:19:34.399Z,49760.00
2023-04-18T08:20:34.409Z,49600.00
2023-04-18T08:21:34.375Z,49568.00
2023-04-18T08:22:34.367Z,48928.00
2023-04-18T08:23:34.350Z,47840.00
2023-04-18T08:24:34.338Z,47104.00
2023-04-18T08:25:34.329Z,47136.00
2023-04-18T08:26:34.374Z,47392.00
2023-04-18T08:27:34.307Z,47200.00
2023-04-18T08:28:34.297Z,46432.00
2023-04-18T08:29:34.308Z,47168.00
2023-04-18T08:30:34.311Z,47904.00
2023-04-18T08:31:34.302Z,47072.00
2023-04-18T08:32:34.400Z,48352.00
2023-04-18T08:33:34.248Z,48736.00
2023-04-18T08:34:34.235Z,49216.00
2023-04-18T08:35:34.218Z,49344.00
2023-04-18T08:36:34.218Z,50240.00
2023-04-18T08:37:34.198Z,49984.00
2023-04-18T08:38:34.185Z,51168.00
2023-04-18T08:39:34.186Z,52768.00
2023-04-18T08:40:34.372Z,53504.00
2023-04-18T08:41:34.164Z,53920.00
2023-04-18T08:42:34.353Z,55328.00
2023-04-18T08:43:34.139Z,56768.00
2023-04-18T08:44:34.134Z,56416.00
2023-04-18T08:45:34.179Z,55904.00
2023-04-18T08:46:34.098Z,56544.00
2023-04-18T08:47:34.117Z,57216.00
2023-04-18T08:48:34.165Z,58752.00
2023-04-18T08:49:34.072Z,58624.00
2023-04-18T08:50:34.067Z,41888.00
2023-04-18T08:51:34.078Z,59264.00
2023-04-18T08:52:34.047Z,57152.00
2023-04-18T08:53:34.032Z,58336.00
2023-04-18T08:54:34.012Z,56896.00
2023-04-18T08:55:34.002Z,60352.00
2023-04-18T08:56:33.997Z,61728.00
2023-04-18T08:57:33.988Z,63296.00
2023-04-18T08:58:34.001Z,67712.00
2023-04-18T08:59:33.953Z,68384.00
2023-04-18T09:00:33.943Z,55584.00
2023-04-18T09:01:33.960Z,64544.00
2023-04-18T09:02:33.994Z,64320.00
2023-04-18T09:03:33.944Z,64960.00
2023-04-18T09:04:34.004Z,67680.00
2023-04-18T09:05:33.888Z,72192.00
2023-04-18T09:06:33.889Z,68288.00
2023-04-18T09:07:33.874Z,62560.00
2023-04-18T09:08:33.857Z,71104.00
2023-04-18T09:09:33.851Z,37888.00
2023-04-18T09:10:33.875Z,58624.00
2023-04-18T09:11:33.828Z,70624.00
2023-04-18T09:12:33.840Z,78400.00
2023-04-18T09:13:33.822Z,81280.00
2023-04-18T09:14:33.925Z,74880.00
2023-04-18T09:15:33.783Z,79744.00
2023-04-18T09:16:33.779Z,75584.00
2023-04-18T09:17:33.785Z,74336.00
2023-04-18T09:18:33.744Z,74112.00
2023-04-18T09:19:33.737Z,75488.00
2023-04-18T09:20:33.724Z,77184.00
2023-04-18T09:21:33.748Z,78240.00
2023-04-18T09:22:33.706Z,78464.00
2023-04-18T09:23:33.696Z,79136.00
2023-04-18T09:24:33.689Z,79584.00
2023-04-18T09:25:33.673Z,78880.00
2023-04-18T09:26:33.665Z,79264.00
2023-04-18T09:27:33.659Z,81344.00
2023-04-18T09:28:33.644Z,79968.00
2023-04-18T09:29:33.639Z,84480.00
2023-04-18T09:30:33.842Z,85696.00
2023-04-18T09:31:33.658Z,82240.00
2023-04-18T09:32:33.617Z,82304.00
2023-04-18T09:33:33.588Z,82048.00
2023-04-18T09:34:33.577Z,84800.00
2023-04-18T09:35:33.576Z,81728.00
2023-04-18T09:36:33.587Z,88704.00
2023-04-18T09:37:33.549Z,88160.00
2023-04-18T09:38:33.535Z,86848.00
2023-04-18T09:39:33.526Z,84480.00
2023-04-18T09:40:33.517Z,79104.00
2023-04-18T09:41:33.515Z,82752.00
2023-04-18T09:42:33.497Z,78912.00
2023-04-18T09:43:33.484Z,47168.00
2023-04-18T09:44:33.469Z,62368.00
2023-04-18T09:45:33.462Z,82752.00
2023-04-18T09:46:33.499Z,87200.00
2023-04-18T09:47:33.484Z,91936.00
2023-04-18T09:48:33.432Z,56672.00
2023-04-18T09:49:33.419Z,81728.00
2023-04-18T09:50:33.415Z,78848.00
2023-04-18T09:51:33.399Z,79104.00
2023-04-18T09:52:33.384Z,79712.00
2023-04-18T09:53:33.378Z,83008.00
2023-04-18T09:54:33.374Z,79360.00
2023-04-18T09:55:33.358Z,80928.00
2023-04-18T09:56:33.345Z,84736.00
2023-04-18T09:57:33.340Z,79520.00
2023-04-18T09:58:33.323Z,82688.00
2023-04-18T09:59:33.327Z,87264.00
2023-04-18T10:00:33.302Z,88672.00
2023-04-18T10:01:33.296Z,90816.00
2023-04-18T10:02:33.414Z,97056.00
2023-04-18T10:03:33.335Z,96288.00
2023-04-18T10:04:33.362Z,98912.00
2023-04-18T10:05:33.277Z,33056.00
2023-04-18T10:06:33.235Z,86816.00
2023-04-18T10:07:33.243Z,65664.00
2023-04-18T10:08:33.230Z,41504.00
2023-04-18T10:09:33.201Z,58048.00
2023-04-18T10:10:33.206Z,38336.00
2023-04-18T10:11:33.208Z,31424.00
2023-04-18T10:12:33.169Z,31264.00
2023-04-18T10:13:33.164Z,37600.00
2023-04-18T10:14:33.149Z,28224.00
2023-04-18T10:15:33.183Z,30656.00
2023-04-18T10:16:34.857Z,53824.00
2023-04-18T10:17:33.134Z,25056.00
2023-04-18T10:18:33.186Z,30880.00
2023-04-18T10:19:33.094Z,71776.00
2023-04-18T10:20:33.077Z,32128.00
2023-04-18T10:21:33.073Z,88832.00
2023-04-18T10:22:33.058Z,96000.00
2023-04-18T10:23:33.049Z,103424.00
2023-04-18T10:24:33.039Z,104608.00
2023-04-18T10:25:33.029Z,99840.00
2023-04-18T10:26:33.016Z,35296.00
2023-04-18T10:27:33.021Z,36192.00
2023-04-18T10:28:32.996Z,36224.00
2023-04-18T10:29:32.985Z,33984.00
2023-04-18T10:30:32.974Z,32576.00
2023-04-18T10:31:32.988Z,30816.00
2023-04-18T10:32:33.032Z,28768.00
2023-04-18T10:33:33.487Z,28032.00
2023-04-18T10:34:33.014Z,28032.00
2023-04-18T10:35:32.919Z,26944.00
2023-04-18T10:36:32.907Z,26880.00
2023-04-18T10:37:32.915Z,28832.00
2023-04-18T10:38:32.895Z,30464.00
2023-04-18T10:39:32.884Z,28544.00
2023-04-18T10:40:32.895Z,26176.00
2023-04-18T10:41:32.879Z,24896.00
2023-04-18T10:42:32.855Z,26624.00
2023-04-18T10:43:32.836Z,81344.00
2023-04-18T10:44:32.842Z,89728.00
2023-04-18T10:45:32.814Z,40864.00
2023-04-18T10:46:33.111Z,37344.00
2023-04-18T10:47:32.918Z,36832.00
2023-04-18T10:48:32.789Z,35040.00
2023-04-18T10:49:33.062Z,36160.00
2023-04-18T10:50:32.914Z,39520.00
2023-04-18T10:51:32.751Z,62400.00
2023-04-18T10:52:32.740Z,43008.00
2023-04-18T10:53:32.730Z,38560.00
2023-04-18T10:54:32.720Z,42720.00
2023-04-18T10:55:32.708Z,77184.00
2023-04-18T10:56:32.692Z,105856.00
2023-04-18T10:57:32.688Z,55744.00
2023-04-18T10:58:32.673Z,42144.00
2023-04-18T10:59:32.667Z,36320.00
2023-04-18T11:00:32.741Z,38880.00
2023-04-18T11:01:33.162Z,42368.00
2023-04-18T11:02:32.748Z,33280.00
2023-04-18T11:03:32.656Z,33248.00
2023-04-18T11:04:32.644Z,35328.00
2023-04-18T11:05:32.603Z,46912.00
2023-04-18T11:06:32.693Z,36224.00
2023-04-18T11:07:32.579Z,36128.00
2023-04-18T11:08:32.565Z,38464.00
2023-04-18T11:09:32.559Z,39456.00
2023-04-18T11:10:32.553Z,43168.00
2023-04-18T11:11:32.545Z,48480.00
2023-04-18T11:12:32.532Z,45344.00
2023-04-18T11:13:32.512Z,63712.00
2023-04-18T11:14:32.501Z,35680.00
2023-04-18T11:15:32.491Z,35616.00
2023-04-18T11:16:32.499Z,30976.00
2023-04-18T11:17:32.516Z,31040.00
2023-04-18T11:18:32.459Z,33216.00
2023-04-18T11:19:32.446Z,37152.00
2023-04-18T11:20:32.441Z,35936.00
2023-04-18T11:21:32.426Z,35040.00
2023-04-18T11:22:32.486Z,32320.00
2023-04-18T11:23:32.405Z,30752.00
2023-04-18T11:24:32.392Z,30400.00
2023-04-18T11:25:32.392Z,29632.00
2023-04-18T11:26:32.374Z,29760.00
2023-04-18T11:27:32.357Z,31744.00
2023-04-18T11:28:32.350Z,30976.00
2023-04-18T11:29:32.345Z,31456.00
2023-04-18T11:30:32.336Z,31392.00
2023-04-18T11:31:32.336Z,29248.00
2023-04-18T11:32:32.383Z,27424.00
2023-04-18T11:33:32.296Z,26176.00
2023-04-18T11:34:32.290Z,26400.00
2023-04-18T11:35:32.277Z,26944.00
2023-04-18T11:36:32.266Z,25728.00
2023-04-18T11:37:32.258Z,24992.00
2023-04-18T11:38:32.292Z,24960.00
2023-04-18T11:39:32.230Z,24928.00
2023-04-18T11:40:32.219Z,24832.00
2023-04-18T11:41:32.210Z,24352.00
2023-04-18T11:42:32.197Z,23776.00
2023-04-18T11:43:32.185Z,23136.00
2023-04-18T11:44:33.707Z,21920.00
2023-04-18T11:45:32.161Z,20320.00
2023-04-18T11:46:32.371Z,19136.00
2023-04-18T11:47:32.216Z,18560.00
2023-04-18T11:48:32.129Z,18464.00
2023-04-18T11:49:32.164Z,18432.00
2023-04-18T11:50:32.108Z,18432.00
2023-04-18T11:51:32.165Z,18816.00
2023-04-18T11:52:32.092Z,19712.00
2023-04-18T11:53:32.077Z,21120.00
2023-04-18T11:54:32.139Z,22080.00
2023-04-18T11:55:32.049Z,21344.00
2023-04-18T11:56:33.423Z,19776.00
2023-04-18T11:57:32.040Z,19424.00
2023-04-18T11:58:32.039Z,20032.00
2023-04-18T11:59:32.005Z,20576.00
2023-04-18T12:00:31.998Z,21504.00
2023-04-18T12:01:31.984Z,23232.00
2023-04-18T12:02:32.069Z,24320.00
2023-04-18T12:03:32.178Z,24672.00
2023-04-18T12:04:32.139Z,25440.00
2023-04-18T12:05:32.119Z,26272.00
2023-04-18T12:06:32.171Z,25952.00
2023-04-18T12:07:31.956Z,25664.00
2023-04-18T12:08:31.910Z,25472.00
2023-04-18T12:09:31.897Z,25568.00
2023-04-18T12:10:31.957Z,25760.00
2023-04-18T12:11:31.915Z,25152.00
2023-04-18T12:12:31.867Z,23520.00
2023-04-18T12:13:31.870Z,22272.00
2023-04-18T12:14:31.840Z,21184.00
2023-04-18T12:15:31.844Z,20800.00
2023-04-18T12:16:31.839Z,20896.00
2023-04-18T12:17:31.839Z,20960.00